KHWO/HWO METAR and TAF weather

Enter ICAO airport designator
Station Type Date Time Source
KHWO METAR 2019/04/22 15:53 UTC NOAA

KHWO 221553Z 07012KT 10SM SCT050 27/13 A3018 RMK AO2 SLP218 T02670128


Station Type Date Time Source
KHWO Decoded METAR 2019/04/22 15:53 UTC NOAA

HOLLYWOOD NORTH PERRY AIRPORT , FL, United States (KHWO) 26-00N 080-14W 2M
Apr 22, 2019 - 11:53 AM EDT / 2019.04.22 1553 UTC
Wind: from the ENE (070 degrees) at 14 MPH (12 KT):0
Visibility: 10 mile(s):0
Sky conditions: partly cloudy
Temperature: 80.1 F (26.7 C)
Dew Point: 55.0 F (12.8 C)
Relative Humidity: 42%
Pressure (altimeter): 30.18 in. Hg (1022 hPa)
ob: KHWO 221553Z 07012KT 10SM SCT050 27/13 A3018 RMK AO2 SLP218 T02670128
cycle: 16

Station Type Date Time Source
KHWO TAF UTC NOAA

Error!

Example: see airport list